createdAt,value
2023-12-20T00:00:07.804Z,99720.41
2023-12-20T00:00:45.105Z,99726.38
2023-12-20T00:01:17.379Z,99716.84
2023-12-20T00:01:49.601Z,99712.44
2023-12-20T00:02:21.674Z,99715.00
2023-12-20T00:02:53.675Z,99718.38
2023-12-20T00:03:25.856Z,99715.00
2023-12-20T00:03:58.252Z,99705.94
2023-12-20T00:04:30.339Z,99716.56
2023-12-20T00:05:05.200Z,99721.66
2023-12-20T00:05:39.532Z,99717.53
2023-12-20T00:06:11.813Z,99705.94
2023-12-20T00:06:44.114Z,99713.78
2023-12-20T00:07:17.510Z,99706.78
2023-12-20T00:07:49.958Z,99711.03
2023-12-20T00:08:22.417Z,99705.94
2023-12-20T00:08:54.939Z,99708.59
2023-12-20T00:09:27.021Z,99707.41
2023-12-20T00:09:59.219Z,99707.41
2023-12-20T00:10:31.436Z,99700.03
2023-12-20T00:11:03.546Z,99698.59
2023-12-20T00:11:35.722Z,99695.81
2023-12-20T00:12:08.021Z,99702.94
2023-12-20T00:12:42.389Z,99695.81
2023-12-20T00:13:14.531Z,99708.25
2023-12-20T00:13:51.747Z,99694.97
2023-12-20T00:14:24.144Z,99690.50
2023-12-20T00:14:56.187Z,99690.38
2023-12-20T00:15:28.219Z,99689.53
2023-12-20T00:16:00.635Z,99689.38
2023-12-20T00:16:33.239Z,99691.97
2023-12-20T00:17:05.570Z,99693.75
2023-12-20T00:17:37.701Z,99684.06
2023-12-20T00:18:10.097Z,99685.03
2023-12-20T00:18:42.270Z,99691.09
2023-12-20T00:19:14.467Z,99684.19
2023-12-20T00:19:46.662Z,99687.56
2023-12-20T00:20:18.988Z,99693.75
2023-12-20T00:20:51.082Z,99682.38
2023-12-20T00:21:23.306Z,99686.88
2023-12-20T00:21:58.561Z,99681.53
2023-12-20T00:22:30.682Z,99678.03
2023-12-20T00:23:03.687Z,99685.03
2023-12-20T00:23:35.785Z,99677.31
2023-12-20T00:24:07.861Z,99675.59
2023-12-20T00:24:39.885Z,99679.38
2023-12-20T00:25:12.329Z,99679.50
2023-12-20T00:25:46.604Z,99683.97
2023-12-20T00:26:18.781Z,99670.31
2023-12-20T00:26:51.002Z,99672.00
2023-12-20T00:27:22.956Z,99675.72
2023-12-20T00:27:55.095Z,99675.72
2023-12-20T00:28:27.252Z,99673.19
2023-12-20T00:29:01.989Z,99669.69
2023-12-20T00:29:37.039Z,99684.66
2023-12-20T00:30:10.139Z,99680.31
2023-12-20T00:30:42.390Z,99665.59
2023-12-20T00:31:14.874Z,99676.22
2023-12-20T00:31:47.087Z,99670.78
2023-12-20T00:32:22.581Z,99668.72
2023-12-20T00:32:55.287Z,99673.81
2023-12-20T00:33:27.516Z,99668.72
2023-12-20T00:33:59.812Z,99669.34
2023-12-20T00:34:32.048Z,99664.03
2023-12-20T00:35:04.431Z,99674.66
2023-12-20T00:35:36.461Z,99658.94
2023-12-20T00:36:08.544Z,99658.09
2023-12-20T00:36:40.647Z,99664.88
2023-12-20T00:37:12.729Z,99660.16
2023-12-20T00:37:45.706Z,99659.19
2023-12-20T00:38:18.069Z,99661.59
2023-12-20T00:38:51.195Z,99654.97
2023-12-20T00:39:23.228Z,99654.09
2023-12-20T00:39:55.324Z,99654.09
2023-12-20T00:40:27.422Z,99651.22
2023-12-20T00:40:59.548Z,99656.66
2023-12-20T00:41:31.710Z,99656.53
2023-12-20T00:42:03.801Z,99653.16
2023-12-20T00:42:36.755Z,99655.06
2023-12-20T00:43:08.882Z,99643.72
2023-12-20T00:43:41.024Z,99650.59
2023-12-20T00:44:13.223Z,99653.16
2023-12-20T00:44:45.360Z,99646.38
2023-12-20T00:45:17.431Z,99655.06
2023-12-20T00:45:49.566Z,99646.88
2023-12-20T00:46:21.825Z,99649.53
2023-12-20T00:46:53.995Z,99646.13
2023-12-20T00:47:26.155Z,99647.72
2023-12-20T00:48:00.762Z,99642.53
2023-12-20T00:48:36.379Z,99642.53
2023-12-20T00:49:08.656Z,99637.44
2023-12-20T00:49:40.859Z,99641.19
2023-12-20T00:50:15.933Z,99639.97
2023-12-20T00:50:48.253Z,99638.28
2023-12-20T00:51:22.588Z,99633.34
2023-12-20T00:51:54.790Z,99632.38
2023-12-20T00:52:27.135Z,99636.84
2023-12-20T00:53:00.040Z,99635.13
2023-12-20T00:53:32.069Z,99629.94
2023-12-20T00:54:04.238Z,99633.22
2023-12-20T00:54:39.343Z,99625.25
2023-12-20T00:55:11.672Z,99629.72
2023-12-20T00:55:45.657Z,99626.09
2023-12-20T00:56:17.980Z,99624.28
2023-12-20T00:56:50.143Z,99628.41
2023-12-20T00:57:22.186Z,99618.84
2023-12-20T00:57:54.731Z,99619.69
2023-12-20T00:58:29.814Z,99620.66
2023-12-20T00:59:01.998Z,99619.81
2023-12-20T00:59:34.325Z,99629.47
2023-12-20T01:00:07.351Z,99624.16
2023-12-20T01:00:41.525Z,99615.47
2023-12-20T01:01:15.250Z,99621.00
2023-12-20T01:01:47.715Z,99620.91
2023-12-20T01:02:20.772Z,99626.31
2023-12-20T01:02:53.009Z,99626.22
2023-12-20T01:03:25.434Z,99628.03
2023-12-20T01:03:59.917Z,99624.97
2023-12-20T01:04:34.710Z,99616.28
2023-12-20T01:05:10.750Z,99618.94
2023-12-20T01:05:42.833Z,99617.97
2023-12-20T01:06:18.134Z,99616.41
2023-12-20T01:06:56.385Z,99616.41
2023-12-20T01:07:28.478Z,99617.38
2023-12-20T01:08:03.071Z,99615.69
2023-12-20T01:08:36.361Z,99610.59
2023-12-20T01:09:10.925Z,99618.44
2023-12-20T01:09:42.939Z,99614.22
2023-12-20T01:10:15.134Z,99614.22
2023-12-20T01:10:50.094Z,99603.72
2023-12-20T01:11:25.403Z,99612.66
2023-12-20T01:11:57.523Z,99610.00
2023-12-20T01:12:29.562Z,99607.34
2023-12-20T01:13:01.803Z,99608.41
2023-12-20T01:13:36.903Z,99600.31
2023-12-20T01:14:11.791Z,99610.94
2023-12-20T01:14:44.163Z,99608.41
2023-12-20T01:15:19.911Z,99600.59
2023-12-20T01:15:54.530Z,99607.56
2023-12-20T01:16:29.481Z,99606.25
2023-12-20T01:17:07.129Z,99611.44
2023-12-20T01:17:42.447Z,99596.72
2023-12-20T01:18:17.027Z,99600.94
2023-12-20T01:18:51.795Z,99606.13
2023-12-20T01:19:25.392Z,99601.78
2023-12-20T01:19:57.740Z,99601.56
2023-12-20T01:20:32.990Z,99605.91
2023-12-20T01:21:05.351Z,99601.91
2023-12-20T01:21:42.391Z,99602.03
2023-12-20T01:22:19.323Z,99606.13
2023-12-20T01:22:51.497Z,99609.41
2023-12-20T01:23:23.602Z,99598.16
2023-12-20T01:23:55.709Z,99606.13
2023-12-20T01:25:00.811Z,99599.13
2023-12-20T01:25:33.043Z,99603.47
2023-12-20T01:26:06.716Z,99595.50
2023-12-20T01:26:38.916Z,99595.75
2023-12-20T01:27:14.198Z,99596.72
2023-12-20T01:27:49.061Z,99597.56
2023-12-20T01:28:21.301Z,99588.63
2023-12-20T01:28:53.480Z,99593.72
2023-12-20T01:29:25.649Z,99596.13
2023-12-20T01:30:31.103Z,99584.78
2023-12-20T01:31:06.506Z,99591.66
2023-12-20T01:31:38.838Z,99589.00
2023-12-20T01:32:11.236Z,99587.06
2023-12-20T01:32:45.872Z,99584.66
2023-12-20T01:33:43.076Z,99585.38
2023-12-20T01:34:15.607Z,99580.06
2023-12-20T01:35:21.222Z,99582.13
2023-12-20T01:35:56.024Z,99584.03
2023-12-20T01:36:30.407Z,99581.28
2023-12-20T01:37:02.586Z,99576.56
2023-12-20T01:37:40.631Z,99574.88
2023-12-20T01:38:12.642Z,99573.19
2023-12-20T01:38:44.800Z,99572.94
2023-12-20T01:39:25.388Z,99574.75
2023-12-20T01:40:00.537Z,99569.44
2023-12-20T01:40:32.730Z,99570.19
2023-12-20T01:41:08.690Z,99572.94
2023-12-20T01:41:44.684Z,99564.97
2023-12-20T01:42:17.023Z,99565.72
2023-12-20T01:42:49.158Z,99571.00
2023-12-20T01:43:25.608Z,99569.34
2023-12-20T01:43:59.789Z,99568.47
2023-12-20T01:44:32.123Z,99571.13
2023-12-20T01:45:04.680Z,99566.78
2023-12-20T01:45:37.438Z,99566.19
2023-12-20T01:46:12.462Z,99562.91
2023-12-20T01:46:44.518Z,99561.94
2023-12-20T01:47:16.880Z,99566.53
2023-12-20T01:47:49.104Z,99559.75
2023-12-20T01:48:21.831Z,99567.00
2023-12-20T01:48:56.204Z,99563.25
2023-12-20T01:50:01.408Z,99560.38
2023-12-20T01:50:38.587Z,99556.88
2023-12-20T01:51:12.202Z,99555.91
2023-12-20T01:51:47.187Z,99554.22
2023-12-20T01:52:22.168Z,99554.09
2023-12-20T01:52:59.074Z,99551.31
2023-12-20T01:53:31.368Z,99553.00
2023-12-20T01:54:04.821Z,99546.13
2023-12-20T01:55:16.757Z,99551.44
2023-12-20T01:55:51.774Z,99543.59
2023-12-20T01:56:24.556Z,99539.00
2023-12-20T01:56:57.154Z,99550.34
2023-12-20T01:57:29.869Z,99538.28
2023-12-20T01:58:03.661Z,99543.59
2023-12-20T01:58:40.138Z,99541.06
2023-12-20T01:59:12.634Z,99542.13
2023-12-20T01:59:46.111Z,99538.91
2023-12-20T02:00:20.543Z,99535.50
2023-12-20T02:00:58.128Z,99534.44
2023-12-20T02:01:33.235Z,99537.94
2023-12-20T02:02:05.785Z,99535.28
2023-12-20T02:02:41.224Z,99530.81
2023-12-20T02:03:18.177Z,99535.00
2023-12-20T02:03:51.322Z,99531.66
2023-12-20T02:04:23.838Z,99534.44
2023-12-20T02:04:56.648Z,99531.66
2023-12-20T02:05:29.792Z,99523.94
2023-12-20T02:06:02.126Z,99524.66
2023-12-20T02:06:37.794Z,99529.00
2023-12-20T02:07:10.803Z,99529.00
2023-12-20T02:07:43.371Z,99534.91
2023-12-20T02:08:17.984Z,99520.31
2023-12-20T02:08:51.684Z,99525.63
2023-12-20T02:09:24.153Z,99529.84
2023-12-20T02:09:56.915Z,99528.28
2023-12-20T02:10:30.471Z,99525.63
2023-12-20T02:11:04.490Z,99526.59
2023-12-20T02:11:37.505Z,99524.88
2023-12-20T02:12:09.696Z,99523.94
2023-12-20T02:12:47.232Z,99525.00
2023-12-20T02:13:20.613Z,99520.53
2023-12-20T02:13:53.084Z,99513.66
2023-12-20T02:14:27.541Z,99523.44
2023-12-20T02:15:02.344Z,99519.09
2023-12-20T02:15:34.560Z,99519.81
2023-12-20T02:16:08.865Z,99512.81
2023-12-20T02:16:44.078Z,99511.22
2023-12-20T02:17:17.530Z,99513.16
2023-12-20T02:17:50.510Z,99517.28
2023-12-20T02:18:23.002Z,99507.72
2023-12-20T02:18:55.306Z,99510.16
2023-12-20T02:19:31.865Z,99516.31
2023-12-20T02:20:07.310Z,99515.47
2023-12-20T02:20:39.546Z,99508.56
2023-12-20T02:21:12.102Z,99509.41
2023-12-20T02:21:44.262Z,99510.16
2023-12-20T02:22:16.465Z,99511.13
2023-12-20T02:22:48.750Z,99511.97
2023-12-20T02:23:22.937Z,99508.47
2023-12-20T02:23:55.005Z,99518.13
2023-12-20T02:24:27.063Z,99512.91
2023-12-20T02:25:04.463Z,99515.47
2023-12-20T02:25:36.592Z,99508.69
2023-12-20T02:26:09.105Z,99510.63
2023-12-20T02:26:44.810Z,99513.03
2023-12-20T02:27:21.409Z,99508.84
2023-12-20T02:27:55.601Z,99507.25
2023-12-20T02:28:31.709Z,99506.03
2023-12-20T02:29:03.961Z,99501.84
2023-12-20T02:29:37.417Z,99505.34
2023-12-20T02:30:10.186Z,99500.88
2023-12-20T02:30:42.473Z,99499.28
2023-12-20T02:31:14.662Z,99495.91
2023-12-20T02:31:46.863Z,99501.94
2023-12-20T02:32:27.152Z,99494.84
2023-12-20T02:33:02.428Z,99492.28
2023-12-20T02:33:34.517Z,99495.06
2023-12-20T02:34:06.616Z,99489.25
2023-12-20T02:34:38.951Z,99497.13
2023-12-20T02:35:13.035Z,99495.53
2023-12-20T02:35:48.970Z,99494.47
2023-12-20T02:36:21.164Z,99499.41
2023-12-20T02:36:56.308Z,99499.41
2023-12-20T02:37:31.437Z,99492.41
2023-12-20T02:38:03.535Z,99488.66
2023-12-20T02:38:35.542Z,99501.00
2023-12-20T02:39:07.940Z,99497.50
2023-12-20T02:39:40.015Z,99493.13
2023-12-20T02:40:12.745Z,99496.63
2023-12-20T02:40:49.520Z,99497.50
2023-12-20T02:41:22.299Z,99493.88
2023-12-20T02:41:54.297Z,99490.47
2023-12-20T02:42:26.316Z,99490.72
2023-12-20T02:42:59.783Z,99476.47
2023-12-20T02:43:34.283Z,99485.16
2023-12-20T02:44:06.296Z,99485.06
2023-12-20T02:44:38.441Z,99485.06
2023-12-20T02:45:10.637Z,99477.31
2023-12-20T02:45:42.722Z,99474.66
2023-12-20T02:46:18.142Z,99486.13
2023-12-20T02:46:50.369Z,99485.41
2023-12-20T02:47:22.709Z,99479.25
2023-12-20T02:47:54.988Z,99484.56
2023-12-20T02:48:27.175Z,99480.09
2023-12-20T02:48:59.384Z,99479.25
2023-12-20T02:49:37.235Z,99469.63
2023-12-20T02:50:09.735Z,99474.94
2023-12-20T02:50:42.032Z,99469.72
2023-12-20T02:51:14.053Z,99465.28
2023-12-20T02:51:46.133Z,99474.66
2023-12-20T02:52:18.307Z,99472.00
2023-12-20T02:52:50.389Z,99466.13
2023-12-20T02:53:22.367Z,99470.59
2023-12-20T02:53:54.555Z,99459.00
2023-12-20T02:54:26.725Z,99468.66
2023-12-20T02:54:58.927Z,99466.84
2023-12-20T02:55:33.362Z,99461.53
2023-12-20T02:56:05.759Z,99466.56
2023-12-20T02:56:37.791Z,99467.41
2023-12-20T02:57:09.846Z,99466.56
2023-12-20T02:57:43.592Z,99471.88
2023-12-20T02:58:15.989Z,99465.03
2023-12-20T02:58:48.073Z,99465.03
2023-12-20T02:59:20.281Z,99459.59
2023-12-20T02:59:52.381Z,99462.25
2023-12-20T03:00:24.492Z,99463.22
2023-12-20T03:00:56.819Z,99457.91
2023-12-20T03:02:20.137Z,99457.78
2023-12-20T03:02:52.375Z,99460.56
2023-12-20T03:03:24.451Z,99464.31
2023-12-20T03:03:56.649Z,99457.78
2023-12-20T03:04:28.882Z,99459.59
2023-12-20T03:05:01.771Z,99459.59
2023-12-20T03:05:34.444Z,99457.91
2023-12-20T03:06:06.702Z,99451.75
2023-12-20T03:06:39.109Z,99454.16
2023-12-20T03:07:11.285Z,99451.75
2023-12-20T03:07:43.681Z,99449.09
2023-12-20T03:08:15.937Z,99455.88
2023-12-20T03:08:48.150Z,99451.50
2023-12-20T03:09:21.729Z,99449.72
2023-12-20T03:10:06.256Z,99443.78
2023-12-20T03:10:45.978Z,99437.75
2023-12-20T03:11:18.015Z,99441.47
2023-12-20T03:11:53.184Z,99442.44
2023-12-20T03:12:25.377Z,99444.97
2023-12-20T03:12:57.348Z,99440.66
2023-12-20T03:13:29.365Z,99451.13
2023-12-20T03:14:01.624Z,99444.25
2023-12-20T03:14:33.703Z,99437.28
2023-12-20T03:15:06.219Z,99444.13
2023-12-20T03:15:38.834Z,99444.41
2023-12-20T03:16:14.990Z,99436.66
2023-12-20T03:16:53.180Z,99434.47
2023-12-20T03:17:26.378Z,99446.31
2023-12-20T03:18:00.347Z,99441.97
2023-12-20T03:18:34.848Z,99439.91
2023-12-20T03:19:06.906Z,99445.47
2023-12-20T03:19:39.031Z,99443.16
2023-12-20T03:20:12.305Z,99439.69
2023-12-20T03:20:44.418Z,99437.03
2023-12-20T03:21:16.566Z,99443.75
2023-12-20T03:21:48.664Z,99443.03
2023-12-20T03:22:20.692Z,99444.50
2023-12-20T03:22:52.664Z,99447.28
2023-12-20T03:23:24.649Z,99450.78
2023-12-20T03:23:56.626Z,99442.91
2023-12-20T03:24:29.031Z,99433.53
2023-12-20T03:25:01.165Z,99442.19
2023-12-20T03:25:33.376Z,99436.06
2023-12-20T03:26:08.699Z,99441.97
2023-12-20T03:26:40.791Z,99439.41
2023-12-20T03:27:12.720Z,99439.69
2023-12-20T03:27:44.927Z,99440.75
2023-12-20T03:28:17.485Z,99440.88
2023-12-20T03:28:50.211Z,99434.84
2023-12-20T03:29:22.277Z,99441.84
2023-12-20T03:29:54.408Z,99437.63
2023-12-20T03:30:26.336Z,99437.72
2023-12-20T03:30:58.515Z,99436.28
2023-12-20T03:31:30.626Z,99437.13
2023-12-20T03:32:02.594Z,99432.88
2023-12-20T03:32:34.781Z,99438.09
2023-12-20T03:33:06.875Z,99438.19
2023-12-20T03:33:38.865Z,99431.19
2023-12-20T03:34:11.997Z,99431.31
2023-12-20T03:34:44.300Z,99428.19
2023-12-20T03:35:16.360Z,99432.78
2023-12-20T03:35:48.255Z,99431.44
2023-12-20T03:36:20.509Z,99430.47
2023-12-20T03:36:52.504Z,99436.97
2023-12-20T03:37:25.013Z,99427.94
2023-12-20T03:37:58.245Z,99427.69
2023-12-20T03:38:30.237Z,99424.47
2023-12-20T03:39:02.177Z,99434.31
2023-12-20T03:39:34.276Z,99436.88
2023-12-20T03:40:06.832Z,99429.75
2023-12-20T03:40:38.869Z,99427.94
2023-12-20T03:41:10.814Z,99419.75
2023-12-20T03:41:42.890Z,99424.09
2023-12-20T03:42:14.885Z,99424.84
2023-12-20T03:42:47.179Z,99424.84
2023-12-20T03:43:19.292Z,99417.84
2023-12-20T03:43:51.336Z,99423.59
2023-12-20T03:44:23.344Z,99426.25
2023-12-20T03:44:55.394Z,99421.22
2023-12-20T03:45:27.369Z,99422.06
2023-12-20T03:46:00.165Z,99416.50
2023-12-20T03:46:32.202Z,99424.94
2023-12-20T03:47:04.398Z,99420.69
2023-12-20T03:47:36.453Z,99420.81
2023-12-20T03:48:08.677Z,99413.81
2023-12-20T03:48:40.690Z,99424.66
2023-12-20T03:49:12.718Z,99422.88
2023-12-20T03:49:44.734Z,99426.59
2023-12-20T03:50:17.149Z,99421.53
2023-12-20T03:50:49.184Z,99425.03
2023-12-20T03:51:21.221Z,99418.50
2023-12-20T03:51:54.734Z,99420.22
2023-12-20T03:52:26.686Z,99410.47
2023-12-20T03:52:58.708Z,99420.94
2023-12-20T03:53:30.686Z,99422.13
2023-12-20T03:54:02.670Z,99421.53
2023-12-20T03:54:36.225Z,99416.69
2023-12-20T03:55:08.504Z,99418.84
2023-12-20T03:55:40.556Z,99413.03
2023-12-20T03:56:12.573Z,99407.84
2023-12-20T03:56:44.519Z,99408.56
2023-12-20T03:57:16.598Z,99415.09
2023-12-20T03:57:48.869Z,99418.72
2023-12-20T03:58:21.035Z,99424.03
2023-12-20T03:58:53.248Z,99412.91
2023-12-20T03:59:25.175Z,99418.00
2023-12-20T03:59:57.095Z,99421.38
2023-12-20T04:00:29.125Z,99410.63
2023-12-20T04:01:01.089Z,99409.81
2023-12-20T04:01:33.229Z,99422.34
2023-12-20T04:02:05.641Z,99417.38
2023-12-20T04:02:41.197Z,99422.91
2023-12-20T04:03:14.774Z,99419.56
2023-12-20T04:03:46.785Z,99426.63
2023-12-20T04:04:18.998Z,99426.53
2023-12-20T04:04:51.178Z,99414.47
2023-12-20T04:05:23.281Z,99413.50
2023-12-20T04:05:55.366Z,99416.91
2023-12-20T04:06:27.426Z,99410.84
2023-12-20T04:06:59.584Z,99416.41
2023-12-20T04:07:31.992Z,99422.53
2023-12-20T04:08:05.479Z,99421.69
2023-12-20T04:08:37.539Z,99420.22
2023-12-20T04:09:10.730Z,99416.84
2023-12-20T04:09:42.996Z,99418.53
2023-12-20T04:10:15.057Z,99420.84
2023-12-20T04:10:47.072Z,99418.53
2023-12-20T04:11:19.107Z,99417.44
2023-12-20T04:11:51.022Z,99412.22
2023-12-20T04:12:23.089Z,99416.47
2023-12-20T04:12:56.202Z,99418.28
2023-12-20T04:13:28.197Z,99417.66
2023-12-20T04:14:00.142Z,99412.97
2023-12-20T04:14:32.200Z,99406.84
2023-12-20T04:15:10.358Z,99420.81
2023-12-20T04:15:42.587Z,99410.34
2023-12-20T04:16:14.760Z,99407.88
2023-12-20T04:16:47.881Z,99411.50
2023-12-20T04:17:23.881Z,99404.41
2023-12-20T04:17:55.896Z,99407.78
2023-12-20T04:18:29.438Z,99401.53
2023-12-20T04:19:02.384Z,99401.28
2023-12-20T04:19:34.442Z,99396.72
2023-12-20T04:20:07.421Z,99400.44
2023-12-20T04:20:39.467Z,99392.50
2023-12-20T04:21:11.409Z,99398.13
2023-12-20T04:21:43.320Z,99393.28
2023-12-20T04:22:15.329Z,99395.47
2023-12-20T04:22:47.308Z,99393.75
2023-12-20T04:23:19.348Z,99395.56
2023-12-20T04:23:51.509Z,99392.19
2023-12-20T04:24:23.801Z,99390.38
2023-12-20T04:24:55.779Z,99388.69
2023-12-20T04:25:27.864Z,99385.31
2023-12-20T04:25:59.888Z,99389.28
2023-12-20T04:26:31.847Z,99378.09
2023-12-20T04:27:04.071Z,99379.66
2023-12-20T04:27:36.108Z,99373.31
2023-12-20T04:28:08.121Z,99384.63
2023-12-20T04:28:40.123Z,99378.38
2023-12-20T04:29:12.072Z,99375.13
2023-12-20T04:29:44.016Z,99375.56
2023-12-20T04:30:16.570Z,99370.50
2023-12-20T04:30:48.787Z,99382.69
2023-12-20T04:31:20.875Z,99374.81
2023-12-20T04:31:53.078Z,99376.53
2023-12-20T04:32:25.139Z,99372.28
2023-12-20T04:32:58.214Z,99372.28
2023-12-20T04:33:30.274Z,99372.94
2023-12-20T04:34:02.250Z,99368.22
2023-12-20T04:34:34.310Z,99373.53
2023-12-20T04:35:06.723Z,99361.97
2023-12-20T04:35:38.637Z,99362.94
2023-12-20T04:36:10.753Z,99367.38
2023-12-20T04:36:42.718Z,99369.56
2023-12-20T04:37:14.716Z,99365.84
2023-12-20T04:37:47.057Z,99367.56
2023-12-20T04:38:19.102Z,99363.94
2023-12-20T04:38:51.047Z,99354.75
2023-12-20T04:39:23.055Z,99357.75
2023-12-20T04:39:54.998Z,99361.47
2023-12-20T04:40:27.122Z,99357.50
2023-12-20T04:40:59.096Z,99358.09
2023-12-20T04:41:31.130Z,99360.72
2023-12-20T04:42:03.060Z,99363.28
2023-12-20T04:42:35.092Z,99361.25
2023-12-20T04:43:07.191Z,99357.63
2023-12-20T04:43:39.147Z,99359.31
2023-12-20T04:44:11.118Z,99359.44
2023-12-20T04:44:44.981Z,99357.88
2023-12-20T04:45:17.957Z,99364.34
2023-12-20T04:45:49.933Z,99369.53
2023-12-20T04:46:22.044Z,99362.53
2023-12-20T04:46:54.028Z,99369.03
2023-12-20T04:47:26.049Z,99367.56
2023-12-20T04:47:58.105Z,99358.16
2023-12-20T04:48:30.144Z,99361.56
2023-12-20T04:49:02.694Z,99356.25
2023-12-20T04:49:34.797Z,99359.13
2023-12-20T04:50:07.938Z,99361.88
2023-12-20T04:50:39.983Z,99359.84
2023-12-20T04:51:11.966Z,99359.97
2023-12-20T04:51:43.964Z,99354.78
2023-12-20T04:52:16.115Z,99354.66
2023-12-20T04:52:48.575Z,99351.19
2023-12-20T04:53:20.506Z,99347.47
2023-12-20T04:53:52.470Z,99354.78
2023-12-20T04:54:24.482Z,99353.81
2023-12-20T04:54:56.474Z,99350.56
2023-12-20T04:55:28.552Z,99352.47
2023-12-20T04:56:00.580Z,99349.94
2023-12-20T04:56:32.540Z,99350.19
2023-12-20T04:57:04.907Z,99350.41
2023-12-20T04:57:36.997Z,99355.69
2023-12-20T04:58:09.160Z,99349.69
2023-12-20T04:58:41.112Z,99354.97
2023-12-20T04:59:13.044Z,99353.38
2023-12-20T04:59:45.021Z,99350.97
2023-12-20T05:00:17.227Z,99347.69
2023-12-20T05:00:49.307Z,99353.09
2023-12-20T05:01:22.822Z,99351.63
2023-12-20T05:01:54.985Z,99351.53
2023-12-20T05:02:27.265Z,99355.22
2023-12-20T05:02:59.256Z,99351.63
2023-12-20T05:03:31.251Z,99352.50
2023-12-20T05:04:03.255Z,99356.91
2023-12-20T05:04:35.294Z,99359.69
2023-12-20T05:05:07.549Z,99357.16
2023-12-20T05:05:40.362Z,99359.91
2023-12-20T05:06:12.386Z,99360.97
2023-12-20T05:06:44.405Z,99357.41
2023-12-20T05:07:16.506Z,99365.34
2023-12-20T05:07:48.873Z,99364.69
2023-12-20T05:08:21.451Z,99361.94
2023-12-20T05:08:53.556Z,99367.63
2023-12-20T05:09:25.470Z,99362.34
2023-12-20T05:09:57.445Z,99359.34
2023-12-20T05:10:29.645Z,99368.13
2023-12-20T05:11:02.885Z,99362.00
2023-12-20T05:11:34.850Z,99358.00
2023-12-20T05:12:07.684Z,99355.78
2023-12-20T05:12:39.760Z,99362.56
2023-12-20T05:13:12.098Z,99362.78
2023-12-20T05:13:49.844Z,99371.16
2023-12-20T05:14:22.451Z,99362.63
2023-12-20T05:14:54.376Z,99360.81
2023-12-20T05:15:26.320Z,99363.00
2023-12-20T05:15:58.251Z,99363.00
2023-12-20T05:16:30.253Z,99364.59
2023-12-20T05:17:02.265Z,99360.38
2023-12-20T05:17:34.309Z,99364.69
2023-12-20T05:18:06.772Z,99363.34
2023-12-20T05:18:38.682Z,99365.97
2023-12-20T05:19:10.646Z,99358.16
2023-12-20T05:19:42.686Z,99363.34
2023-12-20T05:20:14.796Z,99364.28
2023-12-20T05:20:47.442Z,99357.19
2023-12-20T05:21:19.808Z,99352.75
2023-12-20T05:21:51.878Z,99360.09
2023-12-20T05:22:23.956Z,99355.84
2023-12-20T05:22:55.925Z,99363.78
2023-12-20T05:23:27.852Z,99360.41
2023-12-20T05:23:59.767Z,99361.00
2023-12-20T05:24:31.691Z,99355.22
2023-12-20T05:25:03.835Z,99364.97
2023-12-20T05:25:35.723Z,99361.56
2023-12-20T05:26:07.791Z,99360.72
2023-12-20T05:26:39.659Z,99365.19
2023-12-20T05:27:12.495Z,99363.38
2023-12-20T05:27:44.706Z,99358.81
2023-12-20T05:28:16.906Z,99362.41
2023-12-20T05:28:48.900Z,99361.56
2023-12-20T05:29:21.411Z,99356.28
2023-12-20T05:29:53.353Z,99352.91
2023-12-20T05:30:25.393Z,99356.53
2023-12-20T05:30:57.615Z,99367.94
2023-12-20T05:31:29.914Z,99362.78
2023-12-20T05:32:01.957Z,99358.41
2023-12-20T05:32:34.013Z,99366.34
2023-12-20T05:33:06.113Z,99363.81
2023-12-20T05:33:38.475Z,99362.00
2023-12-20T05:34:10.662Z,99365.63
2023-12-20T05:34:42.775Z,99359.38
2023-12-20T05:35:15.417Z,99362.25
2023-12-20T05:35:47.513Z,99362.13
2023-12-20T05:36:19.832Z,99360.22
2023-12-20T05:36:51.767Z,99363.50
2023-12-20T05:37:23.831Z,99364.78
2023-12-20T05:37:55.741Z,99372.72
2023-12-20T05:38:27.740Z,99371.16
2023-12-20T05:38:59.695Z,99360.56
2023-12-20T05:39:32.264Z,99364.78
2023-12-20T05:40:05.536Z,99371.75
2023-12-20T05:40:37.508Z,99364.53
2023-12-20T05:41:09.564Z,99368.16
2023-12-20T05:41:41.501Z,99368.16
2023-12-20T05:42:13.436Z,99367.53
2023-12-20T05:42:45.579Z,99366.69
2023-12-20T05:43:17.608Z,99359.19
2023-12-20T05:43:49.635Z,99367.34
2023-12-20T05:44:21.600Z,99369.88
2023-12-20T05:44:55.153Z,99371.66
2023-12-20T05:45:28.059Z,99370.81
2023-12-20T05:45:59.959Z,99366.38
2023-12-20T05:46:32.046Z,99360.59
2023-12-20T05:47:04.172Z,99363.97
2023-12-20T05:47:36.171Z,99363.00
2023-12-20T05:48:08.422Z,99359.75
2023-12-20T05:48:40.822Z,99361.44
2023-12-20T05:49:12.921Z,99358.78
2023-12-20T05:49:46.288Z,99357.19
2023-12-20T05:50:18.256Z,99361.63
2023-12-20T05:50:50.428Z,99359.94
2023-12-20T05:51:22.397Z,99360.78
2023-12-20T05:51:55.272Z,99361.03
2023-12-20T05:52:27.317Z,99363.97
2023-12-20T05:52:59.289Z,99357.63
2023-12-20T05:53:31.245Z,99364.94
2023-12-20T05:54:03.242Z,99364.41
2023-12-20T05:54:35.604Z,99363.56
2023-12-20T05:55:07.891Z,99372.34
2023-12-20T05:55:39.984Z,99371.63
2023-12-20T05:56:12.257Z,99362.09
2023-12-20T05:56:44.272Z,99371.69
2023-12-20T05:57:16.517Z,99372.66
2023-12-20T05:57:48.787Z,99370.13
2023-12-20T05:58:20.912Z,99375.31
2023-12-20T05:58:52.883Z,99376.56
2023-12-20T05:59:25.194Z,99375.66
2023-12-20T05:59:57.193Z,99375.84
2023-12-20T06:00:29.320Z,99380.16
2023-12-20T06:01:01.399Z,99364.53
2023-12-20T06:01:33.432Z,99372.25
2023-12-20T06:02:06.045Z,99378.47
2023-12-20T06:02:38.148Z,99374.88
2023-12-20T06:03:10.077Z,99366.22
2023-12-20T06:03:43.250Z,99371.41
2023-12-20T06:04:15.257Z,99370.88
2023-12-20T06:04:47.278Z,99367.38
2023-12-20T06:05:19.260Z,99373.75
2023-12-20T06:05:52.920Z,99374.81
2023-12-20T06:06:26.215Z,99373.94
2023-12-20T06:06:58.224Z,99377.66
2023-12-20T06:07:30.903Z,99374.03
2023-12-20T06:08:04.420Z,99374.16
2023-12-20T06:08:37.455Z,99374.38
2023-12-20T06:09:09.810Z,99376.25
2023-12-20T06:09:41.828Z,99372.91
2023-12-20T06:10:15.140Z,99379.03
2023-12-20T06:10:47.185Z,99373.97
2023-12-20T06:11:19.177Z,99381.78
2023-12-20T06:11:52.234Z,99379.88
2023-12-20T06:12:28.203Z,99379.13
2023-12-20T06:13:02.006Z,99381.13
2023-12-20T06:13:34.114Z,99383.03
2023-12-20T06:14:06.147Z,99379.56
2023-12-20T06:14:38.350Z,99381.56
2023-12-20T06:15:10.643Z,99379.34
2023-12-20T06:15:42.741Z,99386.94
2023-12-20T06:16:14.806Z,99384.72
2023-12-20T06:16:47.355Z,99380.81
2023-12-20T06:17:19.294Z,99379.25
2023-12-20T06:17:51.523Z,99388.03
2023-12-20T06:18:24.149Z,99384.00
2023-12-20T06:18:56.221Z,99378.72
2023-12-20T06:19:29.158Z,99376.78
2023-12-20T06:20:01.542Z,99387.06
2023-12-20T06:20:34.412Z,99383.78
2023-12-20T06:21:06.324Z,99377.66
2023-12-20T06:21:38.260Z,99381.34
2023-12-20T06:22:10.223Z,99385.78
2023-12-20T06:22:42.274Z,99385.16
2023-12-20T06:23:14.314Z,99385.88
2023-12-20T06:23:46.310Z,99388.03
2023-12-20T06:24:18.197Z,99387.38
2023-12-20T06:24:50.145Z,99384.84
2023-12-20T06:25:22.215Z,99383.34
2023-12-20T06:25:54.172Z,99383.22
2023-12-20T06:26:26.126Z,99386.09
2023-12-20T06:26:58.106Z,99391.56
2023-12-20T06:27:30.418Z,99392.44
2023-12-20T06:28:02.427Z,99393.47
2023-12-20T06:28:34.441Z,99386.50
2023-12-20T06:29:06.423Z,99385.78